sensor_id;sensor_type;location;lat;lon;timestamp;P1;P2;P0
71858;PMS5003;59713;50.866;4.324;2024-01-11T00:00:36;58;43;
71858;PMS5003;59713;50.866;4.324;2024-01-11T00:01:36;58;43;
71858;PMS5003;59713;50.866;4.324;2024-01-11T00:01:36;58;43;
71858;PMS5003;59713;50.866;4.324;2024-01-11T00:02:36;58;43;
71858;PMS5003;59713;50.866;4.324;2024-01-11T00:03:36;49;40;
71858;PMS5003;59713;50.866;4.324;2024-01-11T00:04:36;49;40;
71858;PMS5003;59713;50.866;4.324;2024-01-11T00:05:36;49;40;
71858;PMS5003;59713;50.866;4.324;2024-01-11T00:06:39;53;42;
71858;PMS5003;59713;50.866;4.324;2024-01-11T00:07:36;53;42;
71858;PMS5003;59713;50.866;4.324;2024-01-11T00:08:36;53;42;
71858;PMS5003;59713;50.866;4.324;2024-01-11T00:09:38;53;42;
71858;PMS5003;59713;50.866;4.324;2024-01-11T00:10:36;53;42;
71858;PMS5003;59713;50.866;4.324;2024-01-11T00:10:36;53;42;
71858;PMS5003;59713;50.866;4.324;2024-01-11T00:11:36;53;42;
71858;PMS5003;59713;50.866;4.324;2024-01-11T00:12:36;53;43;
71858;PMS5003;59713;50.866;4.324;2024-01-11T00:13:36;53;43;
71858;PMS5003;59713;50.866;4.324;2024-01-11T00:14:36;53;43;
71858;PMS5003;59713;50.866;4.324;2024-01-11T00:15:36;51;38;
71858;PMS5003;59713;50.866;4.324;2024-01-11T00:16:36;51;38;
71858;PMS5003;59713;50.866;4.324;2024-01-11T00:17:36;51;38;
71858;PMS5003;59713;50.866;4.324;2024-01-11T00:18:36;54;43;
71858;PMS5003;59713;50.866;4.324;2024-01-11T00:19:39;54;43;
71858;PMS5003;59713;50.866;4.324;2024-01-11T00:19:39;54;43;
71858;PMS5003;59713;50.866;4.324;2024-01-11T00:20:36;54;43;
71858;PMS5003;59713;50.866;4.324;2024-01-11T00:21:36;51;39;
71858;PMS5003;59713;50.866;4.324;2024-01-11T00:22:36;51;39;
71858;PMS5003;59713;50.866;4.324;2024-01-11T00:23:36;51;39;
71858;PMS5003;59713;50.866;4.324;2024-01-11T00:24:36;46;36;
71858;PMS5003;59713;50.866;4.324;2024-01-11T00:25:38;46;36;
71858;PMS5003;59713;50.866;4.324;2024-01-11T00:26:36;46;36;
71858;PMS5003;59713;50.866;4.324;2024-01-11T00:27:36;60;45;
71858;PMS5003;59713;50.866;4.324;2024-01-11T00:28:36;60;45;
71858;PMS5003;59713;50.866;4.324;2024-01-11T00:28:36;60;45;
71858;PMS5003;59713;50.866;4.324;2024-01-11T00:29:36;60;45;
71858;PMS5003;59713;50.866;4.324;2024-01-11T00:30:36;53;43;
71858;PMS5003;59713;50.866;4.324;2024-01-11T00:31:36;53;43;
71858;PMS5003;59713;50.866;4.324;2024-01-11T00:32:36;53;43;
71858;PMS5003;59713;50.866;4.324;2024-01-11T00:33:36;56;44;
71858;PMS5003;59713;50.866;4.324;2024-01-11T00:34:36;56;44;
71858;PMS5003;59713;50.866;4.324;2024-01-11T00:35:36;56;44;
71858;PMS5003;59713;50.866;4.324;2024-01-11T00:36:36;47;41;
71858;PMS5003;59713;50.866;4.324;2024-01-11T00:37:36;47;41;
71858;PMS5003;59713;50.866;4.324;2024-01-11T00:37:36;47;41;
71858;PMS5003;59713;50.866;4.324;2024-01-11T00:38:36;47;41;
71858;PMS5003;59713;50.866;4.324;2024-01-11T00:39:36;56;43;
71858;PMS5003;59713;50.866;4.324;2024-01-11T00:40:36;56;43;
71858;PMS5003;59713;50.866;4.324;2024-01-11T00:41:36;56;43;
71858;PMS5003;59713;50.866;4.324;2024-01-11T00:42:38;55;42;
71858;PMS5003;59713;50.866;4.324;2024-01-11T00:43:36;55;42;
71858;PMS5003;59713;50.866;4.324;2024-01-11T00:44:36;55;42;
71858;PMS5003;59713;50.866;4.324;2024-01-11T00:45:36;64;47;
71858;PMS5003;59713;50.866;4.324;2024-01-11T00:46:36;64;47;
71858;PMS5003;59713;50.866;4.324;2024-01-11T00:46:36;64;47;
71858;PMS5003;59713;50.866;4.324;2024-01-11T00:47:36;64;47;
71858;PMS5003;59713;50.866;4.324;2024-01-11T00:48:36;49;40;
71858;PMS5003;59713;50.866;4.324;2024-01-11T00:49:36;49;40;
71858;PMS5003;59713;50.866;4.324;2024-01-11T00:50:36;49;40;
71858;PMS5003;59713;50.866;4.324;2024-01-11T00:51:36;63;46;
71858;PMS5003;59713;50.866;4.324;2024-01-11T00:52:36;63;46;
71858;PMS5003;59713;50.866;4.324;2024-01-11T00:53:36;63;46;
71858;PMS5003;59713;50.866;4.324;2024-01-11T00:54:36;60;45;
71858;PMS5003;59713;50.866;4.324;2024-01-11T00:55:36;60;45;
71858;PMS5003;59713;50.866;4.324;2024-01-11T00:56:41;60;45;
71858;PMS5003;59713;50.866;4.324;2024-01-11T00:56:41;60;45;
71858;PMS5003;59713;50.866;4.324;2024-01-11T00:57:36;55;42;
71858;PMS5003;59713;50.866;4.324;2024-01-11T00:58:38;55;42;
71858;PMS5003;59713;50.866;4.324;2024-01-11T00:59:36;55;42;
71858;PMS5003;59713;50.866;4.324;2024-01-11T01:00:36;66;51;
71858;PMS5003;59713;50.866;4.324;2024-01-11T01:01:36;66;51;
71858;PMS5003;59713;50.866;4.324;2024-01-11T01:02:36;66;51;
71858;PMS5003;59713;50.866;4.324;2024-01-11T01:03:36;51;39;
71858;PMS5003;59713;50.866;4.324;2024-01-11T01:04:37;51;39;
71858;PMS5003;59713;50.866;4.324;2024-01-11T01:05:36;51;39;
71858;PMS5003;59713;50.866;4.324;2024-01-11T01:05:36;51;39;
71858;PMS5003;59713;50.866;4.324;2024-01-11T01:06:36;58;44;
71858;PMS5003;59713;50.866;4.324;2024-01-11T01:07:36;58;44;
71858;PMS5003;59713;50.866;4.324;2024-01-11T01:08:36;58;44;
71858;PMS5003;59713;50.866;4.324;2024-01-11T01:09:36;62;46;
71858;PMS5003;59713;50.866;4.324;2024-01-11T01:10:36;62;46;
71858;PMS5003;59713;50.866;4.324;2024-01-11T01:11:36;62;46;
71858;PMS5003;59713;50.866;4.324;2024-01-11T01:12:36;65;49;
71858;PMS5003;59713;50.866;4.324;2024-01-11T01:13:36;65;49;
71858;PMS5003;59713;50.866;4.324;2024-01-11T01:14:36;65;49;
71858;PMS5003;59713;50.866;4.324;2024-01-11T01:14:36;65;49;
71858;PMS5003;59713;50.866;4.324;2024-01-11T01:15:36;57;44;
71858;PMS5003;59713;50.866;4.324;2024-01-11T01:16:36;57;44;
71858;PMS5003;59713;50.866;4.324;2024-01-11T01:17:36;57;44;
71858;PMS5003;59713;50.866;4.324;2024-01-11T01:18:36;56;44;
71858;PMS5003;59713;50.866;4.324;2024-01-11T01:19:36;56;44;
71858;PMS5003;59713;50.866;4.324;2024-01-11T01:20:36;56;44;
71858;PMS5003;59713;50.866;4.324;2024-01-11T01:21:36;57;42;
71858;PMS5003;59713;50.866;4.324;2024-01-11T01:22:36;57;42;
71858;PMS5003;59713;50.866;4.324;2024-01-11T01:23:36;57;42;
71858;PMS5003;59713;50.866;4.324;2024-01-11T01:23:36;57;42;
71858;PMS5003;59713;50.866;4.324;2024-01-11T01:24:36;55;43;
71858;PMS5003;59713;50.866;4.324;2024-01-11T01:25:36;55;43;
71858;PMS5003;59713;50.866;4.324;2024-01-11T01:26:36;55;43;
71858;PMS5003;59713;50.866;4.324;2024-01-11T01:27:36;55;43;
71858;PMS5003;59713;50.866;4.324;2024-01-11T01:28:36;55;43;
71858;PMS5003;59713;50.866;4.324;2024-01-11T01:29:36;55;43;
71858;PMS5003;59713;50.866;4.324;2024-01-11T01:30:36;53;42;
71858;PMS5003;59713;50.866;4.324;2024-01-11T01:31:36;53;42;
71858;PMS5003;59713;50.866;4.324;2024-01-11T01:32:36;53;42;
71858;PMS5003;59713;50.866;4.324;2024-01-11T01:32:36;53;42;
71858;PMS5003;59713;50.866;4.324;2024-01-11T01:33:36;56;45;
71858;PMS5003;59713;50.866;4.324;2024-01-11T01:34:36;56;45;
71858;PMS5003;59713;50.866;4.324;2024-01-11T01:35:36;56;45;
71858;PMS5003;59713;50.866;4.324;2024-01-11T01:36:36;57;46;
71858;PMS5003;59713;50.866;4.324;2024-01-11T01:37:36;57;46;
71858;PMS5003;59713;50.866;4.324;2024-01-11T01:38:36;57;46;
71858;PMS5003;59713;50.866;4.324;2024-01-11T01:39:37;59;46;
71858;PMS5003;59713;50.866;4.324;2024-01-11T01:40:36;59;46;
71858;PMS5003;59713;50.866;4.324;2024-01-11T01:41:36;59;46;
71858;PMS5003;59713;50.866;4.324;2024-01-11T01:41:36;59;46;
71858;PMS5003;59713;50.866;4.324;2024-01-11T01:42:40;53;40;
71858;PMS5003;59713;50.866;4.324;2024-01-11T01:43:36;53;40;
71858;PMS5003;59713;50.866;4.324;2024-01-11T01:44:36;53;40;
71858;PMS5003;59713;50.866;4.324;2024-01-11T01:45:36;33;24;
71858;PMS5003;59713;50.866;4.324;2024-01-11T01:46:36;33;24;
71858;PMS5003;59713;50.866;4.324;2024-01-11T01:47:36;33;24;
71858;PMS5003;59713;50.866;4.324;2024-01-11T01:48:36;57;46;
71858;PMS5003;59713;50.866;4.324;2024-01-11T01:49:36;57;46;
71858;PMS5003;59713;50.866;4.324;2024-01-11T01:50:36;57;46;
71858;PMS5003;59713;50.866;4.324;2024-01-11T01:51:36;56;44;
71858;PMS5003;59713;50.866;4.324;2024-01-11T01:51:36;56;44;
71858;PMS5003;59713;50.866;4.324;2024-01-11T01:52:38;56;44;
71858;PMS5003;59713;50.866;4.324;2024-01-11T01:53:36;56;44;
71858;PMS5003;59713;50.866;4.324;2024-01-11T01:54:36;45;33;
71858;PMS5003;59713;50.866;4.324;2024-01-11T01:55:36;45;33;
71858;PMS5003;59713;50.866;4.324;2024-01-11T01:56:36;45;33;
71858;PMS5003;59713;50.866;4.324;2024-01-11T01:57:36;56;45;
71858;PMS5003;59713;50.866;4.324;2024-01-11T01:58:36;56;45;
71858;PMS5003;59713;50.866;4.324;2024-01-11T01:59:36;56;45;
71858;PMS5003;59713;50.866;4.324;2024-01-11T02:00:36;64;46;
71858;PMS5003;59713;50.866;4.324;2024-01-11T02:00:36;64;46;
71858;PMS5003;59713;50.866;4.324;2024-01-11T02:01:36;64;46;
71858;PMS5003;59713;50.866;4.324;2024-01-11T02:02:36;64;46;
71858;PMS5003;59713;50.866;4.324;2024-01-11T02:03:36;54;42;
71858;PMS5003;59713;50.866;4.324;2024-01-11T02:04:36;54;42;
71858;PMS5003;59713;50.866;4.324;2024-01-11T02:05:36;54;42;
71858;PMS5003;59713;50.866;4.324;2024-01-11T02:06:36;63;44;
71858;PMS5003;59713;50.866;4.324;2024-01-11T02:07:36;63;44;
71858;PMS5003;59713;50.866;4.324;2024-01-11T02:08:36;63;44;
71858;PMS5003;59713;50.866;4.324;2024-01-11T02:09:36;56;42;
71858;PMS5003;59713;50.866;4.324;2024-01-11T02:09:36;56;42;
71858;PMS5003;59713;50.866;4.324;2024-01-11T02:10:36;56;42;
71858;PMS5003;59713;50.866;4.324;2024-01-11T02:11:36;56;42;
71858;PMS5003;59713;50.866;4.324;2024-01-11T02:12:36;58;45;
71858;PMS5003;59713;50.866;4.324;2024-01-11T02:13:36;58;45;
71858;PMS5003;59713;50.866;4.324;2024-01-11T02:14:37;58;45;
71858;PMS5003;59713;50.866;4.324;2024-01-11T02:15:37;51;40;
71858;PMS5003;59713;50.866;4.324;2024-01-11T02:16:36;51;40;
71858;PMS5003;59713;50.866;4.324;2024-01-11T02:17:37;51;40;
71858;PMS5003;59713;50.866;4.324;2024-01-11T02:18:36;52;42;
71858;PMS5003;59713;50.866;4.324;2024-01-11T02:19:36;52;42;
71858;PMS5003;59713;50.866;4.324;2024-01-11T02:19:36;52;42;
71858;PMS5003;59713;50.866;4.324;2024-01-11T02:20:36;52;42;
71858;PMS5003;59713;50.866;4.324;2024-01-11T02:21:36;51;44;
71858;PMS5003;59713;50.866;4.324;2024-01-11T02:22:38;51;44;
71858;PMS5003;59713;50.866;4.324;2024-01-11T02:23:39;51;44;
71858;PMS5003;59713;50.866;4.324;2024-01-11T02:24:36;57;42;
71858;PMS5003;59713;50.866;4.324;2024-01-11T02:25:36;57;42;
71858;PMS5003;59713;50.866;4.324;2024-01-11T02:26:36;57;42;
71858;PMS5003;59713;50.866;4.324;2024-01-11T02:27:46;53;43;
71858;PMS5003;59713;50.866;4.324;2024-01-11T02:28:36;53;43;
71858;PMS5003;59713;50.866;4.324;2024-01-11T02:28:36;53;43;
71858;PMS5003;59713;50.866;4.324;2024-01-11T02:29:36;53;43;
71858;PMS5003;59713;50.866;4.324;2024-01-11T02:30:36;58;44;
71858;PMS5003;59713;50.866;4.324;2024-01-11T02:31:36;58;44;
71858;PMS5003;59713;50.866;4.324;2024-01-11T02:32:36;58;44;
71858;PMS5003;59713;50.866;4.324;2024-01-11T02:33:36;59;44;
71858;PMS5003;59713;50.866;4.324;2024-01-11T02:34:36;59;44;
71858;PMS5003;59713;50.866;4.324;2024-01-11T02:35:36;59;44;
71858;PMS5003;59713;50.866;4.324;2024-01-11T02:36:36;47;35;
71858;PMS5003;59713;50.866;4.324;2024-01-11T02:37:36;47;35;
71858;PMS5003;59713;50.866;4.324;2024-01-11T02:37:37;47;35;
71858;PMS5003;59713;50.866;4.324;2024-01-11T02:38:36;47;35;
71858;PMS5003;59713;50.866;4.324;2024-01-11T02:39:36;54;43;
71858;PMS5003;59713;50.866;4.324;2024-01-11T02:40:37;54;43;
71858;PMS5003;59713;50.866;4.324;2024-01-11T02:41:36;54;43;
71858;PMS5003;59713;50.866;4.324;2024-01-11T02:42:36;56;45;
71858;PMS5003;59713;50.866;4.324;2024-01-11T02:43:36;56;45;
71858;PMS5003;59713;50.866;4.324;2024-01-11T02:44:36;56;45;
71858;PMS5003;59713;50.866;4.324;2024-01-11T02:45:36;56;44;
71858;PMS5003;59713;50.866;4.324;2024-01-11T02:46:36;56;44;
71858;PMS5003;59713;50.866;4.324;2024-01-11T02:46:36;56;44;
71858;PMS5003;59713;50.866;4.324;2024-01-11T02:47:36;56;44;
71858;PMS5003;59713;50.866;4.324;2024-01-11T02:48:36;53;39;
71858;PMS5003;59713;50.866;4.324;2024-01-11T02:49:36;53;39;
71858;PMS5003;59713;50.866;4.324;2024-01-11T02:50:37;53;39;
71858;PMS5003;59713;50.866;4.324;2024-01-11T02:51:36;54;46;
71858;PMS5003;59713;50.866;4.324;2024-01-11T02:52:36;54;46;
71858;PMS5003;59713;50.866;4.324;2024-01-11T02:53:36;54;46;
71858;PMS5003;59713;50.866;4.324;2024-01-11T02:54:36;54;43;
71858;PMS5003;59713;50.866;4.324;2024-01-11T02:55:36;54;43;
71858;PMS5003;59713;50.866;4.324;2024-01-11T02:55:36;54;43;
71858;PMS5003;59713;50.866;4.324;2024-01-11T02:56:36;54;43;
71858;PMS5003;59713;50.866;4.324;2024-01-11T02:57:36;54;43;
71858;PMS5003;59713;50.866;4.324;2024-01-11T02:58:36;54;43;
71858;PMS5003;59713;50.866;4.324;2024-01-11T02:59:36;54;43;
71858;PMS5003;59713;50.866;4.324;2024-01-11T03:00:36;69;50;
71858;PMS5003;59713;50.866;4.324;2024-01-11T03:01:36;69;50;
71858;PMS5003;59713;50.866;4.324;2024-01-11T03:02:36;69;50;
71858;PMS5003;59713;50.866;4.324;2024-01-11T03:03:36;60;44;
71858;PMS5003;59713;50.866;4.324;2024-01-11T03:04:36;60;44;
71858;PMS5003;59713;50.866;4.324;2024-01-11T03:05:36;60;44;
71858;PMS5003;59713;50.866;4.324;2024-01-11T03:05:36;60;44;
71858;PMS5003;59713;50.866;4.324;2024-01-11T03:06:41;56;43;
71858;PMS5003;59713;50.866;4.324;2024-01-11T03:07:36;56;43;
71858;PMS5003;59713;50.866;4.324;2024-01-11T03:08:36;56;43;
71858;PMS5003;59713;50.866;4.324;2024-01-11T03:09:36;54;43;
71858;PMS5003;59713;50.866;4.324;2024-01-11T03:10:37;54;43;
71858;PMS5003;59713;50.866;4.324;2024-01-11T03:11:36;54;43;
71858;PMS5003;59713;50.866;4.324;2024-01-11T03:12:36;51;44;
71858;PMS5003;59713;50.866;4.324;2024-01-11T03:13:36;51;44;
71858;PMS5003;59713;50.866;4.324;2024-01-11T03:14:36;51;44;
71858;PMS5003;59713;50.866;4.324;2024-01-11T03:14:36;51;44;
71858;PMS5003;59713;50.866;4.324;2024-01-11T03:15:36;55;43;
71858;PMS5003;59713;50.866;4.324;2024-01-11T03:16:36;55;43;
71858;PMS5003;59713;50.866;4.324;2024-01-11T03:17:38;55;43;
71858;PMS5003;59713;50.866;4.324;2024-01-11T03:18:37;52;42;
71858;PMS5003;59713;50.866;4.324;2024-01-11T03:19:38;52;42;
71858;PMS5003;59713;50.866;4.324;2024-01-11T03:20:36;52;42;
71858;PMS5003;59713;50.866;4.324;2024-01-11T03:21:40;52;43;
71858;PMS5003;59713;50.866;4.324;2024-01-11T03:22:36;52;43;
71858;PMS5003;59713;50.866;4.324;2024-01-11T03:23:36;52;43;
71858;PMS5003;59713;50.866;4.324;2024-01-11T03:23:36;52;43;
71858;PMS5003;59713;50.866;4.324;2024-01-11T03:24:37;54;45;
71858;PMS5003;59713;50.866;4.324;2024-01-11T03:25:36;54;45;
71858;PMS5003;59713;50.866;4.324;2024-01-11T03:26:36;54;45;
71858;PMS5003;59713;50.866;4.324;2024-01-11T03:27:36;50;43;
71858;PMS5003;59713;50.866;4.324;2024-01-11T03:28:36;50;43;
71858;PMS5003;59713;50.866;4.324;2024-01-11T03:29:36;50;43;
71858;PMS5003;59713;50.866;4.324;2024-01-11T03:30:36;61;49;
71858;PMS5003;59713;50.866;4.324;2024-01-11T03:31:36;61;49;
71858;PMS5003;59713;50.866;4.324;2024-01-11T03:32:36;61;49;
71858;PMS5003;59713;50.866;4.324;2024-01-11T03:33:36;60;46;
71858;PMS5003;59713;50.866;4.324;2024-01-11T03:33:36;60;46;
71858;PMS5003;59713;50.866;4.324;2024-01-11T03:34:36;60;46;
71858;PMS5003;59713;50.866;4.324;2024-01-11T03:35:36;60;46;
71858;PMS5003;59713;50.866;4.324;2024-01-11T03:36:36;55;42;
71858;PMS5003;59713;50.866;4.324;2024-01-11T03:37:36;55;42;
71858;PMS5003;59713;50.866;4.324;2024-01-11T03:38:37;55;42;
71858;PMS5003;59713;50.866;4.324;2024-01-11T03:39:36;54;43;
71858;PMS5003;59713;50.866;4.324;2024-01-11T03:40:36;54;43;
71858;PMS5003;59713;50.866;4.324;2024-01-11T03:41:36;54;43;
71858;PMS5003;59713;50.866;4.324;2024-01-11T03:42:36;67;51;
71858;PMS5003;59713;50.866;4.324;2024-01-11T03:42:37;67;51;
71858;PMS5003;59713;50.866;4.324;2024-01-11T03:43:36;67;51;
71858;PMS5003;59713;50.866;4.324;2024-01-11T03:44:36;67;51;
71858;PMS5003;59713;50.866;4.324;2024-01-11T03:45:36;49;40;
71858;PMS5003;59713;50.866;4.324;2024-01-11T03:46:36;49;40;
71858;PMS5003;59713;50.866;4.324;2024-01-11T03:47:36;49;40;
71858;PMS5003;59713;50.866;4.324;2024-01-11T03:48:38;58;43;
71858;PMS5003;59713;50.866;4.324;2024-01-11T03:49:36;58;43;
71858;PMS5003;59713;50.866;4.324;2024-01-11T03:50:36;58;43;
71858;PMS5003;59713;50.866;4.324;2024-01-11T03:51:36;54;42;
71858;PMS5003;59713;50.866;4.324;2024-01-11T03:51:36;54;42;
71858;PMS5003;59713;50.866;4.324;2024-01-11T03:52:36;54;42;
71858;PMS5003;59713;50.866;4.324;2024-01-11T03:53:36;54;42;
71858;PMS5003;59713;50.866;4.324;2024-01-11T03:54:36;50;37;
71858;PMS5003;59713;50.866;4.324;2024-01-11T03:55:36;50;37;
71858;PMS5003;59713;50.866;4.324;2024-01-11T03:56:37;50;37;
71858;PMS5003;59713;50.866;4.324;2024-01-11T03:57:36;57;44;
71858;PMS5003;59713;50.866;4.324;2024-01-11T03:58:36;57;44;
71858;PMS5003;59713;50.866;4.324;2024-01-11T03:59:36;57;44;
71858;PMS5003;59713;50.866;4.324;2024-01-11T04:00:36;58;45;
71858;PMS5003;59713;50.866;4.324;2024-01-11T04:01:38;58;45;
71858;PMS5003;59713;50.866;4.324;2024-01-11T04:01:39;58;45;
71858;PMS5003;59713;50.866;4.324;2024-01-11T04:02:36;58;45;
71858;PMS5003;59713;50.866;4.324;2024-01-11T04:03:37;53;42;
71858;PMS5003;59713;50.866;4.324;2024-01-11T04:04:36;53;42;
71858;PMS5003;59713;50.866;4.324;2024-01-11T04:05:37;53;42;
71858;PMS5003;59713;50.866;4.324;2024-01-11T04:06:36;60;46;
71858;PMS5003;59713;50.866;4.324;2024-01-11T04:07:36;60;46;
71858;PMS5003;59713;50.866;4.324;2024-01-11T04:08:36;60;46;
71858;PMS5003;59713;50.866;4.324;2024-01-11T04:09:37;53;41;
71858;PMS5003;59713;50.866;4.324;2024-01-11T04:10:36;53;41;
71858;PMS5003;59713;50.866;4.324;2024-01-11T04:10:36;53;41;
71858;PMS5003;59713;50.866;4.324;2024-01-11T04:11:36;53;41;
71858;PMS5003;59713;50.866;4.324;2024-01-11T04:12:36;53;42;
71858;PMS5003;59713;50.866;4.324;2024-01-11T04:13:37;53;42;
71858;PMS5003;59713;50.866;4.324;2024-01-11T04:14:37;53;42;
71858;PMS5003;59713;50.866;4.324;2024-01-11T04:15:37;59;45;
71858;PMS5003;59713;50.866;4.324;2024-01-11T04:16:39;59;45;
71858;PMS5003;59713;50.866;4.324;2024-01-11T04:17:38;59;45;
71858;PMS5003;59713;50.866;4.324;2024-01-11T04:18:36;55;42;
71858;PMS5003;59713;50.866;4.324;2024-01-11T04:19:37;55;42;
71858;PMS5003;59713;50.866;4.324;2024-01-11T04:19:37;55;42;
71858;PMS5003;59713;50.866;4.324;2024-01-11T04:20:36;55;42;
71858;PMS5003;59713;50.866;4.324;2024-01-11T04:21:37;54;43;
71858;PMS5003;59713;50.866;4.324;2024-01-11T04:22:36;54;43;
71858;PMS5003;59713;50.866;4.324;2024-01-11T04:23:36;54;43;
71858;PMS5003;59713;50.866;4.324;2024-01-11T04:24:36;50;41;
71858;PMS5003;59713;50.866;4.324;2024-01-11T04:25:36;50;41;
71858;PMS5003;59713;50.866;4.324;2024-01-11T04:26:37;50;41;
71858;PMS5003;59713;50.866;4.324;2024-01-11T04:27:37;54;42;
71858;PMS5003;59713;50.866;4.324;2024-01-11T04:28:37;54;42;
71858;PMS5003;59713;50.866;4.324;2024-01-11T04:28:37;54;42;
71858;PMS5003;59713;50.866;4.324;2024-01-11T04:29:37;54;42;
71858;PMS5003;59713;50.866;4.324;2024-01-11T04:30:37;63;43;
71858;PMS5003;59713;50.866;4.324;2024-01-11T04:31:36;63;43;
71858;PMS5003;59713;50.866;4.324;2024-01-11T04:32:36;63;43;
71858;PMS5003;59713;50.866;4.324;2024-01-11T04:33:39;57;42;
71858;PMS5003;59713;50.866;4.324;2024-01-11T04:34:36;57;42;
71858;PMS5003;59713;50.866;4.324;2024-01-11T04:35:37;57;42;
71858;PMS5003;59713;50.866;4.324;2024-01-11T04:36:38;56;44;
71858;PMS5003;59713;50.866;4.324;2024-01-11T04:37:37;56;44;
71858;PMS5003;59713;50.866;4.324;2024-01-11T04:37:37;56;44;
71858;PMS5003;59713;50.866;4.324;2024-01-11T04:38:37;56;44;
71858;PMS5003;59713;50.866;4.324;2024-01-11T04:39:37;53;43;
71858;PMS5003;59713;50.866;4.324;2024-01-11T04:40:37;53;43;
71858;PMS5003;59713;50.866;4.324;2024-01-11T04:41:37;53;43;
71858;PMS5003;59713;50.866;4.324;2024-01-11T04:42:37;57;44;
71858;PMS5003;59713;50.866;4.324;2024-01-11T04:43:37;57;44;
71858;PMS5003;59713;50.866;4.324;2024-01-11T04:44:37;57;44;
71858;PMS5003;59713;50.866;4.324;2024-01-11T04:45:37;54;42;
71858;PMS5003;59713;50.866;4.324;2024-01-11T04:46:37;54;42;
71858;PMS5003;59713;50.866;4.324;2024-01-11T04:47:37;54;42;
71858;PMS5003;59713;50.866;4.324;2024-01-11T04:47:37;54;42;
71858;PMS5003;59713;50.866;4.324;2024-01-11T04:48:37;50;40;
71858;PMS5003;59713;50.866;4.324;2024-01-11T04:49:37;50;40;
71858;PMS5003;59713;50.866;4.324;2024-01-11T04:50:37;50;40;
71858;PMS5003;59713;50.866;4.324;2024-01-11T04:51:37;56;44;
71858;PMS5003;59713;50.866;4.324;2024-01-11T04:52:37;56;44;
71858;PMS5003;59713;50.866;4.324;2024-01-11T04:53:37;56;44;
71858;PMS5003;59713;50.866;4.324;2024-01-11T04:54:37;57;44;
71858;PMS5003;59713;50.866;4.324;2024-01-11T04:55:37;57;44;
71858;PMS5003;59713;50.866;4.324;2024-01-11T04:56:37;57;44;
71858;PMS5003;59713;50.866;4.324;2024-01-11T04:56:37;57;44;
71858;PMS5003;59713;50.866;4.324;2024-01-11T04:57:37;53;43;
71858;PMS5003;59713;50.866;4.324;2024-01-11T04:58:38;53;43;
71858;PMS5003;59713;50.866;4.324;2024-01-11T04:59:37;53;43;
71858;PMS5003;59713;50.866;4.324;2024-01-11T05:00:37;57;42;
71858;PMS5003;59713;50.866;4.324;2024-01-11T05:01:37;57;42;
71858;PMS5003;59713;50.866;4.324;2024-01-11T05:02:37;57;42;
71858;PMS5003;59713;50.866;4.324;2024-01-11T05:03:37;52;43;
71858;PMS5003;59713;50.866;4.324;2024-01-11T05:04:37;52;43;
71858;PMS5003;59713;50.866;4.324;2024-01-11T05:05:37;52;43;
71858;PMS5003;59713;50.866;4.324;2024-01-11T05:06:37;51;40;
71858;PMS5003;59713;50.866;4.324;2024-01-11T05:06:37;51;40;
71858;PMS5003;59713;50.866;4.324;2024-01-11T05:07:37;51;40;
71858;PMS5003;59713;50.866;4.324;2024-01-11T05:08:37;51;40;
71858;PMS5003;59713;50.866;4.324;2024-01-11T05:09:37;57;43;
71858;PMS5003;59713;50.866;4.324;2024-01-11T05:10:37;57;43;
71858;PMS5003;59713;50.866;4.324;2024-01-11T05:11:37;57;43;
71858;PMS5003;59713;50.866;4.324;2024-01-11T05:12:37;58;44;
71858;PMS5003;59713;50.866;4.324;2024-01-11T05:13:37;58;44;
71858;PMS5003;59713;50.866;4.324;2024-01-11T05:14:37;58;44;
71858;PMS5003;59713;50.866;4.324;2024-01-11T05:15:37;66;48;
71858;PMS5003;59713;50.866;4.324;2024-01-11T05:16:38;66;48;
71858;PMS5003;59713;50.866;4.324;2024-01-11T05:16:38;66;48;
71858;PMS5003;59713;50.866;4.324;2024-01-11T05:17:37;66;48;
71858;PMS5003;59713;50.866;4.324;2024-01-11T05:18:37;58;46;
71858;PMS5003;59713;50.866;4.324;2024-01-11T05:19:37;58;46;
71858;PMS5003;59713;50.866;4.324;2024-01-11T05:20:37;58;46;
71858;PMS5003;59713;50.866;4.324;2024-01-11T05:21:37;59;45;
71858;PMS5003;59713;50.866;4.324;2024-01-11T05:22:37;59;45;
71858;PMS5003;59713;50.866;4.324;2024-01-11T05:23:37;59;45;
71858;PMS5003;59713;50.866;4.324;2024-01-11T05:24:37;59;46;
71858;PMS5003;59713;50.866;4.324;2024-01-11T05:25:37;59;46;
71858;PMS5003;59713;50.866;4.324;2024-01-11T05:25:37;59;46;
71858;PMS5003;59713;50.866;4.324;2024-01-11T05:26:37;59;46;
71858;PMS5003;59713;50.866;4.324;2024-01-11T05:27:37;57;44;
71858;PMS5003;59713;50.866;4.324;2024-01-11T05:28:37;57;44;
71858;PMS5003;59713;50.866;4.324;2024-01-11T05:29:37;57;44;
71858;PMS5003;59713;50.866;4.324;2024-01-11T05:30:37;60;45;
71858;PMS5003;59713;50.866;4.324;2024-01-11T05:31:37;60;45;
71858;PMS5003;59713;50.866;4.324;2024-01-11T05:32:37;60;45;
71858;PMS5003;59713;50.866;4.324;2024-01-11T05:33:37;61;45;
71858;PMS5003;59713;50.866;4.324;2024-01-11T05:34:37;61;45;
71858;PMS5003;59713;50.866;4.324;2024-01-11T05:34:37;61;45;
71858;PMS5003;59713;50.866;4.324;2024-01-11T05:35:37;61;45;
71858;PMS5003;59713;50.866;4.324;2024-01-11T05:36:37;58;46;
71858;PMS5003;59713;50.866;4.324;2024-01-11T05:37:37;58;46;
71858;PMS5003;59713;50.866;4.324;2024-01-11T05:38:37;58;46;
71858;PMS5003;59713;50.866;4.324;2024-01-11T05:39:37;62;46;
71858;PMS5003;59713;50.866;4.324;2024-01-11T05:40:37;62;46;
71858;PMS5003;59713;50.866;4.324;2024-01-11T05:41:37;62;46;
71858;PMS5003;59713;50.866;4.324;2024-01-11T05:42:37;53;42;
71858;PMS5003;59713;50.866;4.324;2024-01-11T05:43:37;53;42;
71858;PMS5003;59713;50.866;4.324;2024-01-11T05:43:37;53;42;
71858;PMS5003;59713;50.866;4.324;2024-01-11T05:44:37;53;42;
71858;PMS5003;59713;50.866;4.324;2024-01-11T05:45:37;62;48;
71858;PMS5003;59713;50.866;4.324;2024-01-11T05:46:37;62;48;
71858;PMS5003;59713;50.866;4.324;2024-01-11T05:47:37;62;48;
71858;PMS5003;59713;50.866;4.324;2024-01-11T05:48:37;61;45;
71858;PMS5003;59713;50.866;4.324;2024-01-11T05:49:37;61;45;
71858;PMS5003;59713;50.866;4.324;2024-01-11T05:50:37;61;45;
71858;PMS5003;59713;50.866;4.324;2024-01-11T05:51:37;55;46;
71858;PMS5003;59713;50.866;4.324;2024-01-11T05:52:37;55;46;
71858;PMS5003;59713;50.866;4.324;2024-01-11T05:52:37;55;46;
71858;PMS5003;59713;50.866;4.324;2024-01-11T05:53:37;55;46;
71858;PMS5003;59713;50.866;4.324;2024-01-11T05:54:37;58;44;
71858;PMS5003;59713;50.866;4.324;2024-01-11T05:55:37;58;44;
71858;PMS5003;59713;50.866;4.324;2024-01-11T05:56:37;58;44;
71858;PMS5003;59713;50.866;4.324;2024-01-11T05:57:37;58;43;
71858;PMS5003;59713;50.866;4.324;2024-01-11T05:58:37;58;43;
71858;PMS5003;59713;50.866;4.324;2024-01-11T05:59:37;58;43;